Latest Weather Observations for Latrobe Valley

IDV60801

Issued at 9:12 pm EST Wednesday 19 September 2018 (issued every 10 minutes, with the page automatically refreshed every 10 minutes)

About weather observations | Map of weather stations | Latest weather observations for VIC | Other Formats
Station Details ID: 085280 Name: LATROBE VALLEY AIRPORT Lat: -38.21 Lon: 146.47 Height: 55.7 m
Data from the previous 72 hours. | See also: Recent months at Latrobe Valley
Date/Time
EST
Temp
°C
App
Temp
°C
Dew
Point
°C
Rel
Hum
%
Delta-T
°C
Wind Press
QNH
hPa
Press
MSL
hPa
Rain since
9am
mm
Dir  Spd
km/h
Gust
km/h
Spd
kts
Gust
kts
19/09:00pm 5.8 3.2 4.0 88 0.8 W 7 11 4 6 1017.2 1017.2 3.4
19/08:30pm 6.0 1.8 4.0 87 0.9 WNW 15 17 8 9 1016.8 1016.8 3.4
19/08:00pm 5.8 2.0 3.8 87 0.8 WNW 13 17 7 9 1016.6 1016.6 3.4
19/07:30pm 5.4 1.5 3.3 86 0.9 WNW 13 13 7 7 1016.3 1016.3 3.4
19/07:00pm 6.5 3.5 4.0 84 1.1 WNW 9 11 5 6 1015.9 1015.9 3.4
19/06:30pm 7.5 4.5 4.1 79 1.5 SW 9 11 5 6 1015.5 1015.5 3.4
19/06:00pm 8.6 4.9 4.4 75 1.8 WSW 13 15 7 8 1015.2 1015.2 3.4
19/05:30pm 10.0 4.5 4.2 67 2.6 WSW 22 28 12 15 1014.8 1014.8 3.4
19/05:00pm 10.4 3.3 3.7 63 3.0 W 30 41 16 22 1014.3 1014.3 3.4
19/04:46pm 10.1 2.8 4.5 68 2.5 WSW 32 44 17 24 1014.4 1014.4 3.4
19/04:30pm 11.6 7.1 5.9 68 2.7 WSW 19 24 10 13 1014.2 1014.2 3.4
19/04:00pm 10.1 6.5 6.6 79 1.6 SW 15 20 8 11 1014.0 1014.0 3.4
19/03:30pm 8.8 4.2 5.5 80 1.5 SW 19 22 10 12 1014.1 1014.1 3.4
19/03:00pm 8.9 3.2 4.9 76 1.8 SW 24 35 13 19 1014.1 1014.1 3.4
19/02:30pm 9.0 4.0 6.3 83 1.2 SSW 22 33 12 18 1013.6 1013.6 3.4
19/02:00pm 6.9 -0.3 4.9 87 0.9 WSW 32 50 17 27 1013.6 1013.6 3.0
19/01:56pm 6.8 -0.4 5.0 88 0.8 SW 32 50 17 27 1013.7 1013.7 2.6
19/01:30pm 7.1 0.3 5.1 87 0.9 SSW 30 39 16 21 1012.9 1013.0 1.0
19/01:21pm 7.3 0.8 4.8 84 1.1 SSW 28 39 15 21 1012.9 1013.0 0.4
19/01:00pm 8.8 0.6 2.8 66 2.6 SW 35 52 19 28 1012.6 1012.7 0.0
19/12:54pm 10.1 1.5 2.5 59 3.2 W 37 52 20 28 1012.6 1012.7 0.0
19/12:30pm 12.5 4.7 4.7 59 3.6 W 35 48 19 26 1012.3 1012.4 0.0
19/12:00pm 11.2 4.2 4.2 62 3.1 W 30 43 16 23 1012.2 1012.3 0.0
19/11:30am 11.3 4.3 4.3 62 3.2 W 30 41 16 22 1012.0 1012.1 0.0
19/11:00am 10.8 4.3 4.5 65 2.8 W 28 41 15 22 1012.0 1012.1 0.0
19/10:30am 10.8 2.9 4.5 65 2.8 W 35 43 19 23 1011.9 1012.0 0.0
19/10:00am 9.6 2.3 4.6 71 2.2 W 32 44 17 24 1011.9 1012.0 0.0
19/09:30am 9.3 4.1 5.3 76 1.8 W 22 33 12 18 1011.7 1011.8 0.0
19/09:00am 8.8 3.1 5.0 77 1.7 W 24 37 13 20 1011.7 1011.8 2.6
19/08:30am 8.8 3.9 5.2 78 1.6 WNW 20 32 11 17 1011.4 1011.5 2.6
19/08:00am 8.2 3.5 5.3 82 1.3 WNW 19 28 10 15 1011.0 1011.1 2.6
19/07:30am 8.0 4.5 5.6 85 1.1 WSW 13 19 7 10 1010.5 1010.6 2.6
19/07:00am 7.7 3.0 5.3 85 1.1 WSW 19 26 10 14 1010.1 1010.2 2.6
19/06:30am 7.3 2.5 5.4 88 0.8 W 20 26 11 14 1009.7 1009.8 2.6
19/06:00am 7.3 3.1 5.6 89 0.8 W 17 20 9 11 1009.3 1009.4 2.6
19/05:30am 7.3 3.5 5.8 90 0.7 W 15 19 8 10 1009.1 1009.2 2.6
19/05:00am 7.5 3.7 6.0 90 0.7 W 15 22 8 12 1008.7 1008.8 2.4
19/04:30am 7.9 4.3 6.7 92 0.6 W 15 20 8 11 1008.7 1008.8 2.4
19/04:00am 7.4 4.4 6.0 91 0.6 SW 11 15 6 8 1008.6 1008.7 2.4
19/03:30am 8.2 5.8 6.8 91 0.6 W 9 13 5 7 1009.0 1009.1 2.4
19/03:00am 8.5 5.7 7.0 90 0.7 W 11 13 6 7 1008.9 1009.0 2.2
19/02:30am 8.8 7.0 7.1 89 0.8 NNW 6 9 3 5 1008.8 1008.9 2.2
19/02:00am 9.1 6.7 7.1 87 0.9 WSW 9 11 5 6 1008.9 1009.0 2.2
19/01:30am 9.2 6.1 7.2 87 0.9 WSW 13 17 7 9 1009.3 1009.4 1.8
19/01:00am 9.7 6.2 7.1 84 1.2 W 15 17 8 9 1010.0 1010.1 1.6
19/12:30am 9.7 6.5 7.0 83 1.3 W 13 19 7 10 1010.3 1010.4 1.6
19/12:00am 10.1 6.2 7.3 83 1.3 WNW 17 20 9 11 1010.6 1010.7 1.6
 
Date/Time
EST
Temp
°C
App
Temp
°C
Dew
Point
°C
Rel
Hum
%
Delta-T
°C
Wind Press
QNH
hPa
Press
MSL
hPa
Rain since
9am
mm
Dir  Spd
km/h
Gust
km/h
Spd
kts
Gust
kts
18/11:30pm 10.5 6.3 7.4 81 1.5 WNW 19 28 10 15 1010.5 1010.6 1.6
18/11:00pm 10.7 6.8 7.2 79 1.7 WNW 17 22 9 12 1010.0 1010.1 1.6
18/10:30pm 10.1 7.1 5.9 75 1.9 WNW 11 15 6 8 1009.7 1009.8 1.6
18/10:00pm 11.1 7.4 6.3 72 2.3 WNW 15 20 8 11 1009.6 1009.7 1.6
18/09:30pm 11.3 7.7 6.6 73 2.2 WNW 15 24 8 13 1009.4 1009.5 1.6
18/09:00pm 11.6 7.0 6.3 70 2.5 NNW 20 30 11 16 1009.8 1009.9 1.6
18/08:30pm 11.9 8.0 7.0 72 2.4 N 17 24 9 13 1010.0 1010.1 1.6
18/08:00pm 11.5 9.4 8.4 81 1.5 NNW 9 15 5 8 1009.9 1010.0 1.6
18/07:30pm 10.9 10.6 8.5 85 1.2 CALM 0 0 0 0 1010.1 1010.2 1.6
18/07:00pm 11.5 9.2 7.6 77 1.9 WSW 9 15 5 8 1010.3 1010.4 1.6
18/06:30pm 11.4 7.6 7.7 78 1.8 SW 17 24 9 13 1009.9 1010.0 0.6
18/06:00pm 12.7 8.8 7.0 68 2.8 SW 17 24 9 13 1009.1 1009.2 0.2
18/05:30pm 15.9 9.5 3.4 43 5.7 WNW 26 33 14 18 1008.8 1008.9 0.0
18/05:00pm 18.0 10.0 0.2 30 7.8 NW 32 54 17 29 1007.7 1007.8 0.0
18/04:48pm 18.0 9.7 -0.3 29 7.9 WNW 33 52 18 28 1007.6 1007.6 0.0
18/04:30pm 18.1 11.2 0.3 30 7.8 NW 26 37 14 20 1007.4 1007.4 0.0
18/04:00pm 18.6 10.3 -0.2 28 8.2 NW 33 52 18 28 1007.1 1007.1 0.0
18/03:41pm 19.1 9.1 -1.4 25 8.8 NW 41 78 22 42 1007.2 1007.2 0.0
18/03:30pm 19.4 12.1 -0.1 27 8.6 NW 28 46 15 25 1006.9 1006.9 0.0
18/03:05pm 20.1 11.8 -0.5 25 9.0 NNW 33 54 18 29 1006.5 1006.5 0.0
18/03:00pm 20.8 12.9 1.1 27 9.0 NNW 32 48 17 26 1006.6 1006.6 0.0
18/02:30pm 20.8 12.4 -1.1 23 9.6 NW 33 52 18 28 1006.8 1006.8 0.0
18/02:22pm 21.1 13.3 -0.8 23 9.6 NW 30 48 16 26 1007.0 1007.0 0.0
18/02:00pm 21.2 14.2 -0.7 23 9.7 NW 26 33 14 18 1007.0 1007.0 0.0
18/01:30pm 21.7 14.7 -0.3 23 9.8 NW 26 41 14 22 1007.1 1007.1 0.0
18/01:03pm 20.0 12.5 -1.2 24 9.2 NW 28 48 15 26 1007.5 1007.5 0.0
18/01:00pm 20.0 13.5 0.5 27 8.7 NW 24 39 13 21 1007.6 1007.6 0.0
18/12:47pm 20.0 11.8 -3.6 20 9.7 NNW 30 52 16 28 1007.5 1007.5 0.0
18/12:30pm 19.9 13.5 0.9 28 8.6 NW 24 33 13 18 1007.7 1007.8 0.0
18/12:03pm 21.3 12.7 -0.1 24 9.6 NW 35 54 19 29 1008.4 1008.5 0.0
18/12:00pm 20.9 11.4 -0.4 24 9.4 WNW 39 54 21 29 1008.4 1008.5 0.0
18/11:30am 20.3 11.6 -0.3 25 9.1 WNW 35 54 19 29 1008.6 1008.7 0.0
18/11:22am 20.6 13.4 0.4 26 9.1 WNW 28 52 15 28 1008.8 1008.9 0.0
18/11:00am 19.7 13.0 1.7 30 8.2 WNW 26 41 14 22 1009.3 1009.4 0.0
18/10:58am 19.5 12.9 -0.5 26 8.7 W 24 41 13 22 1009.2 1009.3 0.0
18/10:30am 19.0 14.8 3.6 36 7.3 SW 15 19 8 10 1010.0 1010.1 0.0
18/10:00am 17.4 14.1 2.2 36 6.9 SSW 9 13 5 7 1010.6 1010.7 0.0
18/09:30am 16.2 13.4 2.9 41 6.1 SSW 7 17 4 9 1011.0 1011.1 0.0
18/09:00am 14.4 12.5 2.9 46 5.2 S 2 6 1 3 1011.3 1011.4 0.0
18/08:30am 13.0 10.1 4.4 56 3.9 NE 9 13 5 7 1011.1 1011.2 0.0
18/08:00am 8.7 6.2 4.5 75 1.9 NE 7 13 4 7 1011.6 1011.7 0.0
18/07:30am 5.7 3.2 3.5 86 0.9 N 6 13 3 7 1012.0 1012.1 0.0
18/07:00am 3.3 0.4 1.3 87 0.8 NW 6 9 3 5 1012.3 1012.4 0.0
18/06:30am 3.0 -0.6 0.7 85 0.9 SSW 9 13 5 7 1012.4 1012.5 0.0
18/06:00am 4.4 1.6 2.3 86 0.8 SSW 6 15 3 8 1012.1 1012.2 0.0
18/05:30am 3.1 0.0 1.3 88 0.7 SSE 7 13 4 7 1012.6 1012.7 0.0
18/05:00am 2.9 0.4 1.3 89 0.6 E 4 9 2 5 1012.6 1012.7 0.0
18/04:30am 4.0 1.0 2.2 88 0.7 ENE 7 11 4 6 1012.7 1012.8 0.0
18/04:00am 3.4 0.9 1.4 87 0.8 ENE 4 9 2 5 1013.1 1013.2 0.0
18/03:30am 3.5 1.0 1.5 87 0.8 N 4 11 2 6 1013.3 1013.3 0.0
18/03:00am 4.4 2.4 2.1 85 0.9 SSE 2 15 1 8 1013.6 1013.6 0.0
18/02:30am 3.9 0.8 1.6 85 0.9 WSW 7 11 4 6 1013.6 1013.6 0.0
18/02:00am 4.6 2.6 2.1 84 1.0 WSW 2 6 1 3 1013.7 1013.7 0.0
18/01:30am 4.7 3.0 2.1 83 1.0 CALM 0 0 0 0 1014.0 1014.0 0.0
18/01:00am 5.5 3.1 2.2 79 1.3 NE 4 7 2 4 1014.1 1014.1 0.0
18/12:30am 7.6 4.9 2.5 70 2.1 E 6 7 3 4 1014.3 1014.3 0.0
18/12:00am 7.6 4.3 2.7 71 2.1 E 9 11 5 6 1014.5 1014.5 0.0
 
Date/Time
EST
Temp
°C
App
Temp
°C
Dew
Point
°C
Rel
Hum
%
Delta-T
°C
Wind Press
QNH
hPa
Press
MSL
hPa
Rain since
9am
mm
Dir  Spd
km/h
Gust
km/h
Spd
kts
Gust
kts
17/11:30pm 7.6 5.3 2.9 72 2.0 E 4 9 2 5 1015.1 1015.1 0.0
17/11:00pm 6.7 4.2 1.6 70 2.1 E 4 7 2 4 1015.5 1015.5 0.0
17/10:30pm 8.7 5.8 2.7 66 2.5 ENE 7 9 4 5 1015.9 1015.9 0.0
17/10:00pm 9.4 6.1 2.5 62 2.9 E 9 13 5 7 1016.4 1016.4 0.0
17/09:30pm 10.0 6.7 2.4 59 3.2 E 9 13 5 7 1016.7 1016.7 0.0
17/09:00pm 10.4 7.1 2.5 58 3.4 E 9 11 5 6 1017.0 1017.0 0.0
17/08:30pm 9.8 6.5 2.4 60 3.1 E 9 13 5 7 1017.3 1017.3 0.0
17/08:00pm 10.8 9.1 2.1 55 3.7 CALM 0 0 0 0 1017.6 1017.6 0.0
17/07:30pm 11.3 7.6 2.1 53 3.9 NW 11 15 6 8 1017.6 1017.6 0.0
17/07:00pm 12.1 8.3 1.7 49 4.4 NW 11 19 6 10 1017.5 1017.5 0.0
17/06:30pm 12.5 7.7 2.4 50 4.4 NW 17 19 9 10 1017.2 1017.2 0.0
17/06:00pm 12.7 9.7 4.2 56 3.9 WNW 9 13 5 7 1017.0 1017.0 0.0
17/05:30pm 14.5 11.1 4.2 50 4.8 W 11 15 6 8 1016.7 1016.7 0.0
17/05:00pm 15.7 11.1 3.8 45 5.5 WSW 17 24 9 13 1016.6 1016.6 0.0
17/04:30pm 16.5 12.4 4.2 44 5.8 WSW 15 19 8 10 1016.6 1016.6 0.0
17/04:00pm 16.6 11.4 3.3 41 6.1 W 20 28 11 15 1016.6 1016.6 0.0
17/03:30pm 16.7 11.3 2.7 39 6.4 W 20 28 11 15 1016.7 1016.7 0.0
17/03:00pm 17.0 11.8 3.7 41 6.2 W 20 28 11 15 1016.9 1016.9 0.0
17/02:30pm 17.2 12.1 3.1 39 6.5 WNW 19 28 10 15 1017.3 1017.3 0.0
17/02:00pm 16.9 11.6 3.2 40 6.3 WNW 20 32 11 17 1017.7 1017.7 0.0
17/01:30pm 16.4 10.2 2.4 39 6.3 W 24 35 13 19 1018.0 1018.0 0.0
17/01:00pm 16.3 10.7 3.7 43 5.8 W 22 32 12 17 1018.4 1018.4 0.0
17/12:30pm 16.0 10.0 3.4 43 5.8 W 24 32 13 17 1019.0 1019.0 0.0
17/12:00pm 16.0 10.3 5.0 48 5.2 W 24 33 13 18 1019.5 1019.5 0.0
17/11:30am 15.0 9.0 3.2 45 5.4 WNW 24 33 13 18 1019.9 1019.9 0.0
17/11:00am 14.6 8.6 3.4 47 5.1 NW 24 35 13 19 1020.3 1020.3 0.0
17/10:30am 14.3 8.0 3.7 49 4.8 WNW 26 39 14 21 1020.7 1020.7 0.0
17/10:27am 14.2 7.5 3.7 49 4.8 NW 28 39 15 21 1020.7 1020.7 0.0
17/10:00am 12.5 10.7 5.4 62 3.3 WSW 4 9 2 5 1021.1 1021.1 0.0
17/09:30am 12.0 9.5 4.7 61 3.3 E 7 11 4 6 1021.4 1021.4 0.0
17/09:00am 10.2 8.9 6.0 75 1.9 SSE 2 6 1 3 1021.9 1021.9 0.2
17/08:30am 9.1 8.6 7.7 91 0.7 CALM 0 0 0 0 1022.1 1022.1 0.2
17/08:00am 6.2 4.0 5.3 94 0.4 SW 6 7 3 4 1022.3 1022.3 0.2
17/07:30am 4.8 3.5 3.9 94 0.4 CALM 0 4 0 2 1022.1 1022.1 0.2
17/07:03am 4.0 2.5 3.1 94 0.4 CALM 0 0 0 0 1022.1 1022.1 0.2
17/07:00am 4.0 2.5 3.1 94 0.4 CALM 0 0 0 0 1022.1 1022.1 0.2
17/06:39am 3.0 1.3 2.0 93 0.4 CALM 0 0 0 0 1022.1 1022.1 0.2
17/06:30am 3.1 1.4 2.1 93 0.4 CALM 0 0 0 0 1022.0 1022.0 0.2
17/06:05am 3.0 1.3 2.0 93 0.4 CALM 0 0 0 0 1021.9 1021.9 0.2
17/06:00am 3.3 1.7 2.3 93 0.4 CALM 0 0 0 0 1021.9 1021.9 0.2
17/05:30am 4.2 2.7 3.2 93 0.4 CALM 0 0 0 0 1021.8 1021.8 0.2
17/05:00am 4.5 3.1 3.5 93 0.4 CALM 0 0 0 0 1021.8 1021.8 0.2
17/04:30am 4.6 3.2 3.7 94 0.4 CALM 0 0 0 0 1021.6 1021.6 0.2
17/04:00am 3.9 1.2 2.9 93 0.4 NNE 6 7 3 4 1021.5 1021.5 0.2
17/03:30am 3.5 1.5 2.5 93 0.4 NNW 2 6 1 3 1021.4 1021.4 0.2
17/03:00am 3.6 2.0 2.6 93 0.4 CALM 0 0 0 0 1021.6 1021.6 0.2
17/02:30am 3.8 2.3 2.8 93 0.4 CALM 0 0 0 0 1021.6 1021.6 0.2
17/02:00am 3.6 2.0 2.6 93 0.4 CALM 0 0 0 0 1021.8 1021.8 0.2
17/01:30am 2.7 0.9 1.5 92 0.5 CALM 0 0 0 0 1022.1 1022.1 0.2
17/01:00am 3.6 2.0 2.4 92 0.5 CALM 0 0 0 0 1022.2 1022.2 0.2
17/12:30am 3.2 1.5 2.0 92 0.5 CALM 0 0 0 0 1022.4 1022.4 0.2
17/12:00am 2.0 0.1 0.7 91 0.5 CALM 0 0 0 0 1022.2 1022.2 0.2
 
Date/Time
EST
Temp
°C
App
Temp
°C
Dew
Point
°C
Rel
Hum
%
Delta-T
°C
Wind Press
QNH
hPa
Press
MSL
hPa
Rain since
9am
mm
Dir  Spd
km/h
Gust
km/h
Spd
kts
Gust
kts
16/11:30pm 3.0 1.3 1.7 91 0.5 CALM 0 0 0 0 1022.3 1022.3 0.2
16/11:00pm 3.6 1.9 2.1 90 0.6 CALM 0 0 0 0 1022.4 1022.4 0.2
16/10:30pm 3.4 1.7 1.8 89 0.6 CALM 0 0 0 0 1022.7 1022.8 0.2
16/10:00pm 4.7 2.1 3.0 89 0.7 S 6 9 3 5 1022.8 1022.9 0.2
16/09:30pm 5.0 3.5 2.9 86 0.9 CALM 0 0 0 0 1022.9 1023.0 0.2

Other Formats:

Comma delimited format used in spreadsheet applications
http://www.bom.gov.au/fwo/IDV60801/IDV60801.94891.axf

JavaScript Object Notation format (JSON) in row-major order
http://www.bom.gov.au/fwo/IDV60801/IDV60801.94891.json